Northport, MI (49670)

7:49 AM EST on February 25, 2018 (GMT -0500)
Northern Rolling Hills | | Change Station
Active Advisory: Wind Advisory

Elev 650 ft 45.10 °N, 85.61 °W | Updated 1 second ago

Overcast
Overcast
35.4 °F
Feels Like 26 °F
N
13.9
Wind Variable Wind from SSE
Gusts 19.9 mph

Today
High -- | Low -- °F
--% Chance of Precip.
Yesterday
High -- | Low -- °F
Precip. -- in
Pressure 29.39 in
Visibility 10.0 miles
Clouds Mostly Cloudy 2100 ft
Overcast 2600 ft
Windchill 26 °F
Dew Point 26 °F
Humidity 69%
Rainfall 0.43 in
Snow Depth Not available.
7:27 AM 6:24 PM
Waxing Gibbous, 74% visible
METAR KCVX 251235Z AUTO 24018G30KT 10SM BKN021 OVC026 02/00 A2939 RMK AO2 T00200002
Pressure 29.39 in
Visibility 10.0 miles
Clouds Mostly Cloudy 2100 ft
Overcast 2600 ft
Windchill 26 °F
Dew Point 26 °F
Humidity 69%
Rainfall 0.43 in
Snow Depth Not available.
7:27 AM 6:24 PM
Waxing Gibbous, 74% visible
METAR KCVX 251235Z AUTO 24018G30KT 10SM BKN021 OVC026 02/00 A2939 RMK AO2 T00200002

Get Your Daily Forecast Email!

Thanks for signing up!

Be on the lookout for a verification email in your inbox.

You'll start receiving severe weather alerts in your inbox..

×

10-Day Weather Forecast

Almanac

Astronomy

Feb. 25, 2018 Rise Set
Actual Time
Civil Twilight
Nautical Twilight
Astronomical Twilight
Moon
Length of Visible Light
Length of Day
Tomorrow will be .
, % of the Moon is Illuminated

Today's Extremes

State Highs State Lows

Community

WunderPhotos

Category 6

Welcome to Category 6. This is the collective home for Weather Underground's featured writeups by Dr. Jeff Masters (right), Bob Henson (left), Chris Burt, and other regular contributors.

Nearby

Air Quality

  Air Quality AQ Index Pollutant
Not available.

Snow Depth

Station Depth Elevation

Earthquake Activity

City Distance Mag. Time & Date
Minimum magnitude displayed is 2.5.

Coastal Water Temperatures

Place Temperature

Stations

Nearby Weather Stations

Station Location Temp. Windchill Dew Point Humidity Wind Precip. Elev Updated Type
                   

Watches & Warnings

Wind Advisory
Issued: 3:29 AM EST Feb. 25, 2018 – National Weather Service

... Wind Advisory remains in effect until 4 PM EST this
afternoon...

* timing... 5 am to 4 PM Sunday

* winds... southwest winds will strengthen to 20 to 30 mph with
occasional gusts to 45 mph. Wind gusts will reach 50 mph along
the coastline of the Great Lakes, especially north of Sleeping
Bear Dunes on Lake Michigan, and north of Alpena on Lake Huron.

* Impacts... loose objects will be blown about. Small branches
and tree limbs may be downed. High-profile vehicles will be
difficult to drive. Additional power outages are possible.

Precautionary/preparedness actions...

A Wind Advisory means that winds of 35 mph are expected. Winds
this strong can make driving difficult... especially for high
profile vehicles. Use extra caution.



Jz